Pagina principală
METAR-TAF:

METAR-TAF

Aeroporturi :

Hagåtña, Guam, Statele Unite ale Americii

Latitudine: 13-29N, longitudine: 144-48E, elevație: 91 m

Observații meteo curente

Raportul a fost făcut în urmă cu 38 de minute, la 08:54 UTC
Vânt 7 kt de la Est
Temperatură 28°C
Umiditate 74%
Presiune 1014 hPa
Vizibilitate: 16.1 km
Cer senin

METAR: PGUM 260854Z 10007KT 10SM CLR 28/23 A2994 RMK AO2 RAB01E11 SLP129 P0000 60000 T02830233 53014

Ora: 19:32 (09:32 UTC)

Prognoză

Raportul a fost făcut în urmă cu 4 ore și 12 de minute, la 05:20 UTC
Prognoză valabilă de la 26 ora 06 UTC la 27 ora 12 UTC
Vânt 10 kt de la Est
Vizibilitate: 10 km
Nori împrăștiați la o înălțime de 2200 picior
De la 26 ora 1500 UTC
Vânt 10 kt de la Est
Vizibilitate: 10 km
Nori puțini la o înălțime de 2000 picior
Nori împrăștiați la o înălțime de 5000 picior
averse în apropiere

TAF: PGUM 260520Z 2606/2712 10010KT P6SM SCT022 FM261500 10010KT P6SM VCSH FEW020 SCT050

Observații și prognoze meteo pentru peste 4.000 de aeroporturi (rapoarte METAR și TAF).

Stațiile disponibile sunt reprezentate pe hartă prin puncte galbene și roșii.

Țineți indicatorul mouse-ului pe punctul dorit pentru a vedea denumirea stației.

Apoi, faceți clic pentru a vedea observațiile și prognozele meteorologice.

Pentru a schimba harta: Pentru mărire, faceți clic pe butoanele verzi cu cruce neagră; pentru micșorare, pe butonul verde cu o liniuță; pentru hărți învecinate, pe săgețile verzi.


METAR-TAF: